createdAt,value
2023-02-11T00:24:35.682Z,26.80
2023-02-11T00:27:08.558Z,27.00
2023-02-11T00:29:39.348Z,27.10
2023-02-11T00:32:10.565Z,27.20
2023-02-11T00:34:43.020Z,27.30
2023-02-11T00:50:11.750Z,27.70
2023-02-11T00:52:51.566Z,27.70
2023-02-11T00:58:33.922Z,27.90
2023-02-11T01:02:47.006Z,28.00
2023-02-11T01:11:11.434Z,28.40
2023-02-11T01:13:56.987Z,28.50
2023-02-11T01:16:41.279Z,28.70
2023-02-11T01:19:10.713Z,28.80
2023-02-11T01:21:43.123Z,29.00
2023-02-11T01:24:23.971Z,29.10
2023-02-11T01:26:53.473Z,29.00
2023-02-11T01:29:40.000Z,29.20
2023-02-11T01:32:41.949Z,29.30
2023-02-11T01:35:21.896Z,29.30
2023-02-11T01:55:38.343Z,30.10
2023-02-11T01:58:55.637Z,30.30
2023-02-11T02:01:27.258Z,30.40
2023-02-11T02:03:59.318Z,30.60
2023-02-11T02:06:32.214Z,30.70
2023-02-11T02:09:08.188Z,30.70
2023-02-11T02:11:39.517Z,30.80
2023-02-11T02:14:08.892Z,30.70
2023-02-11T02:16:42.311Z,30.90
2023-02-11T02:19:14.756Z,30.70
2023-02-11T02:22:15.424Z,30.70
2023-02-11T02:33:23.895Z,30.90
2023-02-11T02:34:55.009Z,31.20
2023-02-11T02:37:37.942Z,31.20
2023-02-11T02:40:30.551Z,31.30
2023-02-11T02:43:24.576Z,31.40
2023-02-11T02:48:39.083Z,31.70
2023-02-11T02:51:26.307Z,31.70
2023-02-11T02:54:13.859Z,31.70
2023-02-11T02:56:48.295Z,31.70
2023-02-11T02:59:39.152Z,31.70
2023-02-11T03:15:42.784Z,32.00
2023-02-11T03:18:14.246Z,32.10
2023-02-11T03:20:52.368Z,32.20
2023-02-11T03:23:25.057Z,32.30
2023-02-11T03:26:03.002Z,32.40
2023-02-11T03:29:27.821Z,32.30
2023-02-11T03:35:39.455Z,32.50
2023-02-11T03:41:26.487Z,32.90
2023-02-11T03:44:07.748Z,32.90
2023-02-11T03:49:54.878Z,33.00
2023-02-11T03:52:51.739Z,32.80
2023-02-11T03:55:35.137Z,32.90
2023-02-11T03:58:49.925Z,32.70
2023-02-11T04:08:28.200Z,32.80
2023-02-11T04:11:22.365Z,32.80
2023-02-11T04:14:12.198Z,32.40
2023-02-11T08:01:04.087Z,31.00
2023-02-11T08:03:33.988Z,30.90
2023-02-11T08:06:15.935Z,30.90
2023-02-11T08:08:45.718Z,30.70
2023-02-11T08:11:19.643Z,30.70
2023-02-11T08:13:52.240Z,30.60
2023-02-11T08:16:24.593Z,30.40
2023-02-11T08:18:55.108Z,30.30
2023-02-11T08:21:24.690Z,30.20
2023-02-11T08:23:54.491Z,30.20
2023-02-11T08:26:25.665Z,30.00
2023-02-11T08:28:55.870Z,30.00
2023-02-11T08:31:51.324Z,29.80
2023-02-11T08:34:21.212Z,29.70
2023-02-11T08:36:51.287Z,29.50
2023-02-11T08:39:23.114Z,29.40
2023-02-11T08:41:56.147Z,29.30
2023-02-11T08:44:26.344Z,29.20
2023-02-11T08:46:56.069Z,29.00
2023-02-11T08:49:25.553Z,28.90
2023-02-11T08:51:56.728Z,28.80
2023-02-11T08:54:26.587Z,28.70
2023-02-11T08:56:56.184Z,28.50
2023-02-11T08:59:25.738Z,28.40
2023-02-11T22:30:06.504Z,21.30
2023-02-11T22:32:35.944Z,21.30
2023-02-11T22:35:06.068Z,21.40
2023-02-11T22:37:36.488Z,21.40
2023-02-11T22:40:06.136Z,21.60
2023-02-11T22:42:35.958Z,21.60
2023-02-11T22:45:06.416Z,21.70
2023-02-11T22:47:39.240Z,21.80
2023-02-11T22:50:09.104Z,21.80
2023-02-11T22:52:42.304Z,21.80
2023-02-11T22:55:12.113Z,21.90
2023-02-11T22:57:46.229Z,22.10
2023-02-11T23:00:16.222Z,22.30
2023-02-11T23:03:00.151Z,22.40
2023-02-11T23:05:55.165Z,22.60
2023-02-11T23:08:24.806Z,22.60
2023-02-11T23:10:54.583Z,22.60
2023-02-11T23:13:24.943Z,22.80
2023-02-11T23:15:54.667Z,22.90
2023-02-11T23:18:24.255Z,23.10
2023-02-11T23:20:53.641Z,23.30
2023-02-11T23:23:22.985Z,23.50
2023-02-11T23:25:53.633Z,23.70
2023-02-11T23:28:23.206Z,23.80
2023-02-11T23:30:53.116Z,24.00
2023-02-11T23:33:22.811Z,24.20
2023-02-11T23:35:53.596Z,24.20
2023-02-11T23:38:23.209Z,24.20
2023-02-11T23:40:53.548Z,24.30
2023-02-11T23:43:24.452Z,24.30
2023-02-11T23:45:54.241Z,24.40
2023-02-11T23:48:23.815Z,24.40
2023-02-11T23:50:53.170Z,24.70
2023-02-11T23:53:22.578Z,24.80
2023-02-11T23:55:52.068Z,25.00
2023-02-11T23:58:21.623Z,25.20
